sensor_id;sensor_type;location;lat;lon;timestamp;pressure;altitude;pressure_sealevel;temperature;humidity
59831;BME280;45711;50.108;13.712;2022-08-11T00:01:54;98640.25;;;14.43;67.14
59831;BME280;45711;50.108;13.712;2022-08-11T00:04:23;98628.75;;;14.61;66.42
59831;BME280;45711;50.108;13.712;2022-08-11T00:06:50;98645.94;;;14.65;66.45
59831;BME280;45711;50.108;13.712;2022-08-11T00:09:18;98643.78;;;14.38;67.44
59831;BME280;45711;50.108;13.712;2022-08-11T00:11:48;98644.69;;;14.28;67.19
59831;BME280;45711;50.108;13.712;2022-08-11T00:14:17;98643.19;;;14.17;67.71
59831;BME280;45711;50.108;13.712;2022-08-11T00:16:52;98640.06;;;14.05;68.16
59831;BME280;45711;50.108;13.712;2022-08-11T00:19:20;98636.75;;;14.13;67.97
59831;BME280;45711;50.108;13.712;2022-08-11T00:21:46;98640.19;;;14.19;67.86
59831;BME280;45711;50.108;13.712;2022-08-11T00:24:12;98645.88;;;14.17;67.09
59831;BME280;45711;50.108;13.712;2022-08-11T00:26:38;98636.94;;;13.93;68.24
59831;BME280;45711;50.108;13.712;2022-08-11T00:29:09;98638.94;;;14.11;68.21
59831;BME280;45711;50.108;13.712;2022-08-11T00:31:36;98636.06;;;14.02;68.43
59831;BME280;45711;50.108;13.712;2022-08-11T00:34:05;98638.84;;;14.21;67.66
59831;BME280;45711;50.108;13.712;2022-08-11T00:36:38;98643.16;;;13.88;67.89
59831;BME280;45711;50.108;13.712;2022-08-11T00:39:07;98641.06;;;13.80;67.91
59831;BME280;45711;50.108;13.712;2022-08-11T00:41:38;98634.88;;;13.85;67.69
59831;BME280;45711;50.108;13.712;2022-08-11T00:44:34;98635.44;;;13.81;67.95
59831;BME280;45711;50.108;13.712;2022-08-11T00:47:15;98636.78;;;13.79;68.09
59831;BME280;45711;50.108;13.712;2022-08-11T00:49:53;98638.03;;;13.57;69.62
59831;BME280;45711;50.108;13.712;2022-08-11T00:52:35;98633.84;;;13.80;68.50
59831;BME280;45711;50.108;13.712;2022-08-11T00:55:39;98636.97;;;13.58;69.39
59831;BME280;45711;50.108;13.712;2022-08-11T01:01:21;98636.44;;;13.56;69.53
59831;BME280;45711;50.108;13.712;2022-08-11T01:04:19;98632.72;;;13.47;69.40
59831;BME280;45711;50.108;13.712;2022-08-11T01:10:02;98630.41;;;13.30;69.94
59831;BME280;45711;50.108;13.712;2022-08-11T01:12:52;98629.63;;;13.30;69.85
59831;BME280;45711;50.108;13.712;2022-08-11T01:19:03;98629.78;;;13.44;69.63
59831;BME280;45711;50.108;13.712;2022-08-11T01:22:08;98625.06;;;13.25;70.45
59831;BME280;45711;50.108;13.712;2022-08-11T01:25:03;98638.91;;;13.48;69.70
59831;BME280;45711;50.108;13.712;2022-08-11T01:34:14;98646.56;;;13.25;69.61
59831;BME280;45711;50.108;13.712;2022-08-11T01:36:58;98641.19;;;13.20;69.79
59831;BME280;45711;50.108;13.712;2022-08-11T01:43:03;98640.75;;;13.03;71.02
59831;BME280;45711;50.108;13.712;2022-08-11T01:46:15;98643.97;;;13.05;70.83
59831;BME280;45711;50.108;13.712;2022-08-11T01:48:52;98637.59;;;12.91;71.73
59831;BME280;45711;50.108;13.712;2022-08-11T01:51:26;98630.41;;;12.76;72.24
59831;BME280;45711;50.108;13.712;2022-08-11T01:54:03;98636.78;;;12.90;71.03
59831;BME280;45711;50.108;13.712;2022-08-11T01:56:40;98634.41;;;12.78;71.28
59831;BME280;45711;50.108;13.712;2022-08-11T01:59:15;98632.50;;;12.84;70.88
59831;BME280;45711;50.108;13.712;2022-08-11T02:01:53;98638.47;;;12.76;70.68
59831;BME280;45711;50.108;13.712;2022-08-11T02:04:28;98639.25;;;12.81;70.94
59831;BME280;45711;50.108;13.712;2022-08-11T02:07:00;98639.75;;;12.89;70.46
59831;BME280;45711;50.108;13.712;2022-08-11T02:09:44;98631.22;;;12.66;70.95
59831;BME280;45711;50.108;13.712;2022-08-11T02:12:15;98634.25;;;12.39;72.22
59831;BME280;45711;50.108;13.712;2022-08-11T02:15:00;98632.91;;;12.47;71.42
59831;BME280;45711;50.108;13.712;2022-08-11T02:17:40;98628.06;;;12.49;71.13
59831;BME280;45711;50.108;13.712;2022-08-11T02:20:15;98632.59;;;12.53;71.07
59831;BME280;45711;50.108;13.712;2022-08-11T02:23:03;98635.63;;;12.42;71.97
59831;BME280;45711;50.108;13.712;2022-08-11T02:26:16;98627.84;;;12.30;71.86
59831;BME280;45711;50.108;13.712;2022-08-11T02:28:52;98632.94;;;12.37;71.98
59831;BME280;45711;50.108;13.712;2022-08-11T02:31:26;98628.56;;;12.61;70.88
59831;BME280;45711;50.108;13.712;2022-08-11T02:34:22;98630.22;;;12.47;71.58
59831;BME280;45711;50.108;13.712;2022-08-11T02:36:56;98628.66;;;12.41;71.98
59831;BME280;45711;50.108;13.712;2022-08-11T02:39:30;98628.97;;;11.98;73.21
59831;BME280;45711;50.108;13.712;2022-08-11T02:42:15;98629.50;;;12.11;73.08
59831;BME280;45711;50.108;13.712;2022-08-11T02:45:00;98634.56;;;12.32;72.00
59831;BME280;45711;50.108;13.712;2022-08-11T02:47:35;98629.22;;;12.17;71.97
59831;BME280;45711;50.108;13.712;2022-08-11T02:50:12;98641.56;;;12.18;72.18
59831;BME280;45711;50.108;13.712;2022-08-11T02:52:50;98637.19;;;12.48;71.09
59831;BME280;45711;50.108;13.712;2022-08-11T02:55:26;98632.19;;;12.11;72.71
59831;BME280;45711;50.108;13.712;2022-08-11T02:58:02;98632.19;;;12.00;72.72
59831;BME280;45711;50.108;13.712;2022-08-11T03:00:44;98633.53;;;11.93;72.85
59831;BME280;45711;50.108;13.712;2022-08-11T03:03:18;98630.34;;;11.86;73.15
59831;BME280;45711;50.108;13.712;2022-08-11T03:05:51;98629.25;;;11.92;72.56
59831;BME280;45711;50.108;13.712;2022-08-11T03:08:39;98621.19;;;11.92;72.38
59831;BME280;45711;50.108;13.712;2022-08-11T03:11:18;98627.13;;;11.89;73.07
59831;BME280;45711;50.108;13.712;2022-08-11T03:14:14;98627.63;;;11.91;72.22
59831;BME280;45711;50.108;13.712;2022-08-11T03:17:05;98623.06;;;11.81;72.59
59831;BME280;45711;50.108;13.712;2022-08-11T03:19:45;98624.94;;;11.80;73.43
59831;BME280;45711;50.108;13.712;2022-08-11T03:22:20;98626.28;;;11.68;73.71
59831;BME280;45711;50.108;13.712;2022-08-11T03:24:57;98636.72;;;11.64;73.70
59831;BME280;45711;50.108;13.712;2022-08-11T03:27:33;98641.81;;;11.66;74.54
59831;BME280;45711;50.108;13.712;2022-08-11T03:30:09;98630.81;;;11.62;73.41
59831;BME280;45711;50.108;13.712;2022-08-11T03:32:45;98626.00;;;11.59;74.19
59831;BME280;45711;50.108;13.712;2022-08-11T03:35:37;98631.13;;;11.76;73.27
59831;BME280;45711;50.108;13.712;2022-08-11T03:38:08;98635.13;;;11.63;73.14
59831;BME280;45711;50.108;13.712;2022-08-11T03:40:42;98630.81;;;11.57;73.45
59831;BME280;45711;50.108;13.712;2022-08-11T03:43:46;98632.72;;;11.67;73.37
59831;BME280;45711;50.108;13.712;2022-08-11T03:46:26;98633.25;;;11.64;73.30
59831;BME280;45711;50.108;13.712;2022-08-11T03:49:03;98628.69;;;11.64;72.78
59831;BME280;45711;50.108;13.712;2022-08-11T03:51:47;98627.59;;;11.65;73.03
59831;BME280;45711;50.108;13.712;2022-08-11T03:54:18;98639.94;;;11.41;73.70
59831;BME280;45711;50.108;13.712;2022-08-11T03:57:19;98638.59;;;11.48;74.29
59831;BME280;45711;50.108;13.712;2022-08-11T04:00:07;98641.59;;;11.88;72.56
59831;BME280;45711;50.108;13.712;2022-08-11T04:12:17;98642.66;;;11.71;72.73
59831;BME280;45711;50.108;13.712;2022-08-11T04:15:03;98645.84;;;11.68;72.64
59831;BME280;45711;50.108;13.712;2022-08-11T04:18:24;98632.97;;;11.60;73.09
59831;BME280;45711;50.108;13.712;2022-08-11T04:21:06;98630.28;;;11.50;73.50
59831;BME280;45711;50.108;13.712;2022-08-11T04:23:54;98633.22;;;11.43;74.98
59831;BME280;45711;50.108;13.712;2022-08-11T04:26:51;98635.13;;;11.58;73.96
59831;BME280;45711;50.108;13.712;2022-08-11T04:29:34;98634.56;;;11.61;73.48
59831;BME280;45711;50.108;13.712;2022-08-11T04:32:25;98632.16;;;11.60;74.49
59831;BME280;45711;50.108;13.712;2022-08-11T04:35:22;98643.44;;;11.72;73.23
59831;BME280;45711;50.108;13.712;2022-08-11T04:41:52;98630.56;;;11.64;73.62
59831;BME280;45711;50.108;13.712;2022-08-11T04:47:49;98635.13;;;11.83;72.47
59831;BME280;45711;50.108;13.712;2022-08-11T04:50:56;98632.47;;;11.83;72.58
59831;BME280;45711;50.108;13.712;2022-08-11T04:53:53;98636.97;;;11.47;73.78
59831;BME280;45711;50.108;13.712;2022-08-11T04:56:42;98637.78;;;11.32;74.34
59831;BME280;45711;50.108;13.712;2022-08-11T05:00:03;98639.41;;;11.64;73.16
59831;BME280;45711;50.108;13.712;2022-08-11T05:06:14;98640.78;;;12.02;72.65
59831;BME280;45711;50.108;13.712;2022-08-11T05:09:12;98640.50;;;12.19;71.84
59831;BME280;45711;50.108;13.712;2022-08-11T05:12:13;98639.63;;;12.44;71.48
59831;BME280;45711;50.108;13.712;2022-08-11T05:14:48;98640.91;;;12.62;71.13
59831;BME280;45711;50.108;13.712;2022-08-11T05:17:39;98638.06;;;12.28;73.44
59831;BME280;45711;50.108;13.712;2022-08-11T05:20:27;98640.16;;;12.46;73.13
59831;BME280;45711;50.108;13.712;2022-08-11T05:23:12;98639.31;;;12.56;72.72
59831;BME280;45711;50.108;13.712;2022-08-11T05:25:59;98645.22;;;12.58;72.75
59831;BME280;45711;50.108;13.712;2022-08-11T05:28:50;98646.25;;;12.72;72.56
59831;BME280;45711;50.108;13.712;2022-08-11T05:31:40;98644.56;;;12.92;71.77
59831;BME280;45711;50.108;13.712;2022-08-11T05:34:31;98644.28;;;12.98;71.45
59831;BME280;45711;50.108;13.712;2022-08-11T05:37:21;98639.31;;;13.26;70.91
59831;BME280;45711;50.108;13.712;2022-08-11T05:39:49;98643.91;;;13.15;71.05
59831;BME280;45711;50.108;13.712;2022-08-11T05:42:37;98650.06;;;13.21;71.48
59831;BME280;45711;50.108;13.712;2022-08-11T05:45:22;98643.13;;;13.59;70.16
59831;BME280;45711;50.108;13.712;2022-08-11T05:48:12;98646.16;;;13.87;68.85
59831;BME280;45711;50.108;13.712;2022-08-11T05:51:00;98645.00;;;13.93;69.28
59831;BME280;45711;50.108;13.712;2022-08-11T05:53:48;98647.28;;;13.75;69.22
59831;BME280;45711;50.108;13.712;2022-08-11T05:56:33;98647.16;;;13.96;69.25
59831;BME280;45711;50.108;13.712;2022-08-11T05:59:11;98641.66;;;13.77;69.44
59831;BME280;45711;50.108;13.712;2022-08-11T06:01:40;98643.69;;;13.90;69.50
59831;BME280;45711;50.108;13.712;2022-08-11T06:04:15;98647.34;;;14.04;69.44
59831;BME280;45711;50.108;13.712;2022-08-11T06:06:50;98643.25;;;14.12;68.26
59831;BME280;45711;50.108;13.712;2022-08-11T06:09:26;98649.47;;;14.37;67.35
59831;BME280;45711;50.108;13.712;2022-08-11T06:11:52;98650.69;;;14.73;66.61
59831;BME280;45711;50.108;13.712;2022-08-11T06:14:19;98636.19;;;14.69;66.31
59831;BME280;45711;50.108;13.712;2022-08-11T06:16:47;98642.00;;;15.00;65.58
59831;BME280;45711;50.108;13.712;2022-08-11T06:19:15;98648.03;;;15.35;65.01
59831;BME280;45711;50.108;13.712;2022-08-11T06:21:44;98648.16;;;15.44;64.57
59831;BME280;45711;50.108;13.712;2022-08-11T06:24:14;98649.13;;;15.72;64.53
59831;BME280;45711;50.108;13.712;2022-08-11T06:26:41;98653.94;;;15.75;63.98
59831;BME280;45711;50.108;13.712;2022-08-11T06:29:12;98654.06;;;15.83;64.29
59831;BME280;45711;50.108;13.712;2022-08-11T06:31:50;98657.63;;;15.79;64.36
59831;BME280;45711;50.108;13.712;2022-08-11T06:34:22;98653.03;;;15.98;63.77
59831;BME280;45711;50.108;13.712;2022-08-11T06:36:53;98658.69;;;16.29;63.05
59831;BME280;45711;50.108;13.712;2022-08-11T06:39:21;98652.53;;;16.56;62.64
59831;BME280;45711;50.108;13.712;2022-08-11T06:41:51;98650.72;;;16.93;61.16
59831;BME280;45711;50.108;13.712;2022-08-11T06:44:24;98662.53;;;16.70;61.76
59831;BME280;45711;50.108;13.712;2022-08-11T06:46:52;98660.25;;;16.91;61.12
59831;BME280;45711;50.108;13.712;2022-08-11T06:49:30;98656.88;;;17.35;60.06
59831;BME280;45711;50.108;13.712;2022-08-11T06:52:15;98652.47;;;17.39;60.08
59831;BME280;45711;50.108;13.712;2022-08-11T06:54:43;98657.38;;;17.73;59.59
59831;BME280;45711;50.108;13.712;2022-08-11T06:57:17;98657.03;;;18.73;56.64
59831;BME280;45711;50.108;13.712;2022-08-11T07:00:03;98661.06;;;22.22;47.14
59831;BME280;45711;50.108;13.712;2022-08-11T07:02:57;98664.25;;;23.99;43.36
59831;BME280;45711;50.108;13.712;2022-08-11T07:05:44;98668.94;;;24.58;40.94
59831;BME280;45711;50.108;13.712;2022-08-11T07:08:39;98656.56;;;25.47;40.42
59831;BME280;45711;50.108;13.712;2022-08-11T07:11:54;98666.22;;;26.18;38.38
59831;BME280;45711;50.108;13.712;2022-08-11T07:14:48;98657.94;;;26.57;37.22
59831;BME280;45711;50.108;13.712;2022-08-11T07:17:39;98658.72;;;27.34;36.26
59831;BME280;45711;50.108;13.712;2022-08-11T07:20:09;98656.72;;;27.04;36.88
59831;BME280;45711;50.108;13.712;2022-08-11T07:22:58;98654.63;;;26.71;37.05
59831;BME280;45711;50.108;13.712;2022-08-11T07:25:48;98656.22;;;26.49;37.45
59831;BME280;45711;50.108;13.712;2022-08-11T07:28:33;98651.91;;;27.24;37.26
59831;BME280;45711;50.108;13.712;2022-08-11T07:31:36;98657.13;;;27.33;35.76
59831;BME280;45711;50.108;13.712;2022-08-11T07:34:18;98648.78;;;27.86;34.63
59831;BME280;45711;50.108;13.712;2022-08-11T07:36:49;98650.03;;;28.29;34.18
59831;BME280;45711;50.108;13.712;2022-08-11T07:39:19;98640.53;;;27.55;34.17
59831;BME280;45711;50.108;13.712;2022-08-11T07:41:46;98655.09;;;27.86;34.45
59831;BME280;45711;50.108;13.712;2022-08-11T07:44:14;98651.00;;;28.44;34.24
59831;BME280;45711;50.108;13.712;2022-08-11T07:46:42;98649.88;;;28.48;33.48
59831;BME280;45711;50.108;13.712;2022-08-11T07:49:28;98661.00;;;27.58;34.39
59831;BME280;45711;50.108;13.712;2022-08-11T07:52:14;98642.19;;;27.30;34.65
59831;BME280;45711;50.108;13.712;2022-08-11T07:54:58;98646.25;;;28.89;32.11
59831;BME280;45711;50.108;13.712;2022-08-11T07:57:25;98646.13;;;29.29;32.00
59831;BME280;45711;50.108;13.712;2022-08-11T08:00:10;98640.63;;;27.93;34.36
59831;BME280;45711;50.108;13.712;2022-08-11T08:02:56;98638.38;;;28.87;31.91
59831;BME280;45711;50.108;13.712;2022-08-11T08:05:43;98626.84;;;25.49;38.06
59831;BME280;45711;50.108;13.712;2022-08-11T08:08:28;98638.69;;;27.63;34.56
59831;BME280;45711;50.108;13.712;2022-08-11T08:11:14;98637.88;;;28.30;33.47
59831;BME280;45711;50.108;13.712;2022-08-11T08:13:59;98624.13;;;29.37;30.96
59831;BME280;45711;50.108;13.712;2022-08-11T08:16:44;98615.44;;;28.72;31.50
59831;BME280;45711;50.108;13.712;2022-08-11T08:19:30;98618.53;;;28.64;31.78
59831;BME280;45711;50.108;13.712;2022-08-11T08:21:56;98623.91;;;28.49;32.09
59831;BME280;45711;50.108;13.712;2022-08-11T08:24:23;98607.22;;;27.57;34.05
59831;BME280;45711;50.108;13.712;2022-08-11T08:26:50;98620.03;;;28.17;31.19
59831;BME280;45711;50.108;13.712;2022-08-11T08:29:27;98603.84;;;27.11;31.40
59831;BME280;45711;50.108;13.712;2022-08-11T08:32:12;98610.81;;;28.36;31.59
59831;BME280;45711;50.108;13.712;2022-08-11T08:34:41;98611.97;;;28.35;29.32
59831;BME280;45711;50.108;13.712;2022-08-11T08:37:07;98618.63;;;28.34;28.60
59831;BME280;45711;50.108;13.712;2022-08-11T08:39:33;98610.94;;;28.09;30.76
59831;BME280;45711;50.108;13.712;2022-08-11T08:42:08;98605.03;;;28.99;28.42
59831;BME280;45711;50.108;13.712;2022-08-11T08:44:39;98612.22;;;28.63;30.46
59831;BME280;45711;50.108;13.712;2022-08-11T08:47:06;98599.59;;;26.90;31.23
59831;BME280;45711;50.108;13.712;2022-08-11T08:49:37;98601.66;;;26.01;32.94
59831;BME280;45711;50.108;13.712;2022-08-11T08:52:05;98610.28;;;26.46;33.36
59831;BME280;45711;50.108;13.712;2022-08-11T08:54:35;98604.47;;;25.27;33.67
59831;BME280;45711;50.108;13.712;2022-08-11T08:57:05;98595.56;;;25.69;34.92
59831;BME280;45711;50.108;13.712;2022-08-11T08:59:35;98589.69;;;25.13;35.50
59831;BME280;45711;50.108;13.712;2022-08-11T09:02:03;98595.59;;;24.99;34.08
59831;BME280;45711;50.108;13.712;2022-08-11T09:04:29;98598.13;;;24.09;39.17
59831;BME280;45711;50.108;13.712;2022-08-11T09:06:58;98597.25;;;24.37;36.89
59831;BME280;45711;50.108;13.712;2022-08-11T09:09:25;98599.75;;;25.44;34.62
59831;BME280;45711;50.108;13.712;2022-08-11T09:11:51;98604.03;;;26.72;32.00
59831;BME280;45711;50.108;13.712;2022-08-11T09:14:20;98578.72;;;24.77;36.36
59831;BME280;45711;50.108;13.712;2022-08-11T09:16:47;98588.00;;;24.73;37.20
59831;BME280;45711;50.108;13.712;2022-08-11T09:19:15;98594.75;;;25.88;35.19
59831;BME280;45711;50.108;13.712;2022-08-11T09:21:42;98581.69;;;25.23;36.26
59831;BME280;45711;50.108;13.712;2022-08-11T09:24:08;98593.69;;;26.16;32.98
59831;BME280;45711;50.108;13.712;2022-08-11T09:26:53;98590.31;;;26.03;33.82
59831;BME280;45711;50.108;13.712;2022-08-11T09:29:27;98589.13;;;26.23;33.59
59831;BME280;45711;50.108;13.712;2022-08-11T09:31:53;98579.53;;;25.71;35.65
59831;BME280;45711;50.108;13.712;2022-08-11T09:34:20;98584.00;;;25.41;34.03
59831;BME280;45711;50.108;13.712;2022-08-11T09:36:46;98585.03;;;25.91;34.80
59831;BME280;45711;50.108;13.712;2022-08-11T09:39:31;98577.31;;;24.68;35.00
59831;BME280;45711;50.108;13.712;2022-08-11T09:42:20;98582.09;;;24.90;34.33
59831;BME280;45711;50.108;13.712;2022-08-11T09:44:47;98578.84;;;25.00;33.88
59831;BME280;45711;50.108;13.712;2022-08-11T09:47:23;98573.50;;;25.43;33.81
59831;BME280;45711;50.108;13.712;2022-08-11T09:49:51;98579.31;;;25.22;32.90
59831;BME280;45711;50.108;13.712;2022-08-11T09:52:18;98568.91;;;24.29;38.00
59831;BME280;45711;50.108;13.712;2022-08-11T09:54:46;98568.13;;;25.89;33.88
59831;BME280;45711;50.108;13.712;2022-08-11T09:57:13;98571.38;;;25.75;35.62
59831;BME280;45711;50.108;13.712;2022-08-11T09:59:58;98563.78;;;25.68;35.52
59831;BME280;45711;50.108;13.712;2022-08-11T10:02:26;98565.59;;;26.45;31.02
59831;BME280;45711;50.108;13.712;2022-08-11T10:04:55;98555.97;;;25.86;33.04
59831;BME280;45711;50.108;13.712;2022-08-11T10:07:43;98543.03;;;24.39;38.76
59831;BME280;45711;50.108;13.712;2022-08-11T10:10:15;98543.78;;;25.45;33.03
59831;BME280;45711;50.108;13.712;2022-08-11T10:12:46;98541.38;;;25.63;34.35
59831;BME280;45711;50.108;13.712;2022-08-11T10:15:16;98537.06;;;26.04;32.54
59831;BME280;45711;50.108;13.712;2022-08-11T10:18:06;98536.06;;;26.16;32.95
59831;BME280;45711;50.108;13.712;2022-08-11T10:20:52;98532.25;;;25.36;33.77
59831;BME280;45711;50.108;13.712;2022-08-11T10:23:20;98529.47;;;26.43;31.47
59831;BME280;45711;50.108;13.712;2022-08-11T10:26:06;98525.06;;;25.70;36.07
59831;BME280;45711;50.108;13.712;2022-08-11T10:28:51;98524.47;;;25.99;31.68
59831;BME280;45711;50.108;13.712;2022-08-11T10:31:19;98517.81;;;25.77;36.15
59831;BME280;45711;50.108;13.712;2022-08-11T10:34:04;98528.78;;;25.77;33.75
59831;BME280;45711;50.108;13.712;2022-08-11T10:36:33;98519.34;;;24.46;38.50
59831;BME280;45711;50.108;13.712;2022-08-11T10:39:00;98514.50;;;24.91;37.71
59831;BME280;45711;50.108;13.712;2022-08-11T10:41:27;98514.63;;;24.98;34.63
59831;BME280;45711;50.108;13.712;2022-08-11T10:44:13;98510.97;;;25.48;36.10
59831;BME280;45711;50.108;13.712;2022-08-11T10:46:40;98523.34;;;25.81;32.51
59831;BME280;45711;50.108;13.712;2022-08-11T10:49:25;98511.25;;;25.82;32.05
59831;BME280;45711;50.108;13.712;2022-08-11T10:51:52;98508.81;;;26.49;31.98
59831;BME280;45711;50.108;13.712;2022-08-11T10:54:39;98507.03;;;26.38;31.26
59831;BME280;45711;50.108;13.712;2022-08-11T10:57:23;98513.84;;;25.98;31.90
59831;BME280;45711;50.108;13.712;2022-08-11T11:00:09;98503.63;;;25.52;33.05
59831;BME280;45711;50.108;13.712;2022-08-11T11:02:41;98501.94;;;25.90;33.73
59831;BME280;45711;50.108;13.712;2022-08-11T11:05:11;98492.03;;;25.82;34.21
59831;BME280;45711;50.108;13.712;2022-08-11T11:07:45;98490.75;;;24.28;38.84
59831;BME280;45711;50.108;13.712;2022-08-11T11:10:13;98485.53;;;24.54;37.13
59831;BME280;45711;50.108;13.712;2022-08-11T11:12:42;98501.38;;;25.77;33.13
59831;BME280;45711;50.108;13.712;2022-08-11T11:15:29;98491.50;;;25.96;35.11
59831;BME280;45711;50.108;13.712;2022-08-11T11:18:19;98491.34;;;25.46;36.33
59831;BME280;45711;50.108;13.712;2022-08-11T11:20:49;98483.13;;;25.46;32.72
59831;BME280;45711;50.108;13.712;2022-08-11T11:23:18;98476.78;;;24.84;36.09
59831;BME280;45711;50.108;13.712;2022-08-11T11:29:06;98481.03;;;25.59;33.64
59831;BME280;45711;50.108;13.712;2022-08-11T11:31:47;98475.09;;;25.15;34.73
59831;BME280;45711;50.108;13.712;2022-08-11T11:34:29;98476.75;;;25.19;34.22
59831;BME280;45711;50.108;13.712;2022-08-11T11:37:00;98476.38;;;26.32;30.80
59831;BME280;45711;50.108;13.712;2022-08-11T11:39:29;98465.66;;;25.54;32.99
59831;BME280;45711;50.108;13.712;2022-08-11T11:41:56;98473.84;;;26.20;31.37
59831;BME280;45711;50.108;13.712;2022-08-11T11:44:24;98465.94;;;25.26;34.95
59831;BME280;45711;50.108;13.712;2022-08-11T11:46:50;98466.31;;;26.40;30.83
59831;BME280;45711;50.108;13.712;2022-08-11T11:49:20;98461.16;;;26.61;30.77
59831;BME280;45711;50.108;13.712;2022-08-11T11:51:48;98458.94;;;25.94;32.38
59831;BME280;45711;50.108;13.712;2022-08-11T11:54:14;98462.69;;;25.63;31.80
59831;BME280;45711;50.108;13.712;2022-08-11T11:56:41;98458.75;;;26.06;31.56
59831;BME280;45711;50.108;13.712;2022-08-11T11:59:08;98460.34;;;25.85;32.00
59831;BME280;45711;50.108;13.712;2022-08-11T12:01:53;98468.00;;;26.21;30.31
59831;BME280;45711;50.108;13.712;2022-08-11T12:04:22;98466.38;;;25.94;30.48
59831;BME280;45711;50.108;13.712;2022-08-11T12:06:48;98463.88;;;25.85;30.18
59831;BME280;45711;50.108;13.712;2022-08-11T12:09:14;98453.22;;;25.38;33.69
59831;BME280;45711;50.108;13.712;2022-08-11T12:11:43;98450.66;;;25.06;32.91
59831;BME280;45711;50.108;13.712;2022-08-11T12:14:28;98454.78;;;25.77;31.66
59831;BME280;45711;50.108;13.712;2022-08-11T12:16:55;98451.31;;;25.61;31.58
59831;BME280;45711;50.108;13.712;2022-08-11T12:19:24;98448.69;;;25.68;31.56
59831;BME280;45711;50.108;13.712;2022-08-11T12:21:54;98437.81;;;25.95;31.22
59831;BME280;45711;50.108;13.712;2022-08-11T12:24:38;98445.00;;;25.80;32.40
59831;BME280;45711;50.108;13.712;2022-08-11T12:27:23;98432.34;;;25.95;33.94
59831;BME280;45711;50.108;13.712;2022-08-11T12:29:53;98429.66;;;25.33;34.53
59831;BME280;45711;50.108;13.712;2022-08-11T12:32:20;98433.34;;;25.41;33.48
59831;BME280;45711;50.108;13.712;2022-08-11T12:34:47;98434.06;;;25.38;34.21
59831;BME280;45711;50.108;13.712;2022-08-11T12:37:15;98429.31;;;25.35;33.02
59831;BME280;45711;50.108;13.712;2022-08-11T12:39:46;98434.75;;;25.54;34.50
59831;BME280;45711;50.108;13.712;2022-08-11T12:42:32;98425.41;;;25.36;35.19
59831;BME280;45711;50.108;13.712;2022-08-11T12:45:18;98420.56;;;25.71;34.81
59831;BME280;45711;50.108;13.712;2022-08-11T12:47:53;98418.72;;;24.94;36.32
59831;BME280;45711;50.108;13.712;2022-08-11T12:50:46;98421.91;;;25.35;34.33
59831;BME280;45711;50.108;13.712;2022-08-11T12:53:34;98419.13;;;24.73;36.76
59831;BME280;45711;50.108;13.712;2022-08-11T12:56:04;98413.66;;;25.12;36.84
59831;BME280;45711;50.108;13.712;2022-08-11T12:58:51;98413.34;;;25.83;33.61
59831;BME280;45711;50.108;13.712;2022-08-11T13:01:18;98408.63;;;25.60;36.68
59831;BME280;45711;50.108;13.712;2022-08-11T13:04:03;98402.16;;;25.72;34.03
59831;BME280;45711;50.108;13.712;2022-08-11T13:06:50;98400.91;;;25.43;36.49
59831;BME280;45711;50.108;13.712;2022-08-11T13:09:17;98405.81;;;25.33;33.94
59831;BME280;45711;50.108;13.712;2022-08-11T13:11:44;98405.44;;;25.12;34.86
59831;BME280;45711;50.108;13.712;2022-08-11T13:14:29;98406.72;;;25.18;34.57
59831;BME280;45711;50.108;13.712;2022-08-11T13:16:57;98403.19;;;25.41;34.81
59831;BME280;45711;50.108;13.712;2022-08-11T13:19:44;98401.25;;;25.64;32.96
59831;BME280;45711;50.108;13.712;2022-08-11T13:22:11;98402.34;;;25.60;33.21
59831;BME280;45711;50.108;13.712;2022-08-11T13:24:38;98397.03;;;25.24;37.03
59831;BME280;45711;50.108;13.712;2022-08-11T13:27:05;98401.94;;;25.80;32.85
59831;BME280;45711;50.108;13.712;2022-08-11T13:29:30;98412.44;;;25.55;34.57
59831;BME280;45711;50.108;13.712;2022-08-11T13:31:57;98401.84;;;25.08;34.27
59831;BME280;45711;50.108;13.712;2022-08-11T13:34:25;98400.94;;;25.04;34.10
59831;BME280;45711;50.108;13.712;2022-08-11T13:36:53;98398.91;;;25.20;33.93
59831;BME280;45711;50.108;13.712;2022-08-11T13:39:23;98406.09;;;25.28;34.85
59831;BME280;45711;50.108;13.712;2022-08-11T13:41:51;98413.34;;;24.78;35.76
59831;BME280;45711;50.108;13.712;2022-08-11T13:44:18;98401.00;;;25.50;33.93
59831;BME280;45711;50.108;13.712;2022-08-11T13:46:44;98404.56;;;25.08;34.17
59831;BME280;45711;50.108;13.712;2022-08-11T13:49:10;98400.16;;;25.46;36.24
59831;BME280;45711;50.108;13.712;2022-08-11T13:51:40;98393.19;;;24.87;37.08
59831;BME280;45711;50.108;13.712;2022-08-11T13:54:07;98383.22;;;25.17;33.96
59831;BME280;45711;50.108;13.712;2022-08-11T13:56:36;98390.84;;;25.27;35.20
59831;BME280;45711;50.108;13.712;2022-08-11T13:59:06;98385.31;;;25.04;35.08
59831;BME280;45711;50.108;13.712;2022-08-11T14:01:34;98379.03;;;25.23;36.25
59831;BME280;45711;50.108;13.712;2022-08-11T14:04:05;98389.03;;;25.35;32.58
59831;BME280;45711;50.108;13.712;2022-08-11T14:06:32;98386.72;;;25.60;32.82
59831;BME280;45711;50.108;13.712;2022-08-11T14:09:00;98375.81;;;25.41;33.71
59831;BME280;45711;50.108;13.712;2022-08-11T14:11:28;98381.75;;;25.23;36.26
59831;BME280;45711;50.108;13.712;2022-08-11T14:14:21;98372.28;;;25.40;32.53
59831;BME280;45711;50.108;13.712;2022-08-11T14:16:49;98380.78;;;25.58;31.90
59831;BME280;45711;50.108;13.712;2022-08-11T14:19:19;98379.31;;;25.18;31.69
59831;BME280;45711;50.108;13.712;2022-08-11T14:21:47;98374.72;;;25.22;33.17
59831;BME280;45711;50.108;13.712;2022-08-11T14:24:34;98371.25;;;25.25;31.89
59831;BME280;45711;50.108;13.712;2022-08-11T14:27:01;98365.53;;;25.34;33.57